sensor_id;sensor_type;location;lat;lon;timestamp;temperature;humidity
43647;DHT22;56152;49.996;18.980;2023-12-20T00:02:31;7.00;68.80
43647;DHT22;56152;49.996;18.980;2023-12-20T00:07:35;7.00;68.50
43647;DHT22;56152;49.996;18.980;2023-12-20T00:12:39;7.00;68.20
43647;DHT22;56152;49.996;18.980;2023-12-20T00:17:43;7.00;68.00
43647;DHT22;56152;49.996;18.980;2023-12-20T00:22:46;6.90;67.70
43647;DHT22;56152;49.996;18.980;2023-12-20T00:27:49;6.80;67.70
43647;DHT22;56152;49.996;18.980;2023-12-20T00:32:52;6.70;68.20
43647;DHT22;56152;49.996;18.980;2023-12-20T00:37:54;6.50;68.40
43647;DHT22;56152;49.996;18.980;2023-12-20T00:42:57;6.40;68.40
43647;DHT22;56152;49.996;18.980;2023-12-20T00:47:59;6.40;69.30
43647;DHT22;56152;49.996;18.980;2023-12-20T00:53:01;6.30;68.80
43647;DHT22;56152;49.996;18.980;2023-12-20T00:58:06;6.20;68.90
43647;DHT22;56152;49.996;18.980;2023-12-20T01:03:08;6.20;68.90
43647;DHT22;56152;49.996;18.980;2023-12-20T01:08:09;6.20;68.90
43647;DHT22;56152;49.996;18.980;2023-12-20T01:13:13;6.20;68.90
43647;DHT22;56152;49.996;18.980;2023-12-20T01:18:16;6.20;68.90
43647;DHT22;56152;49.996;18.980;2023-12-20T01:23:23;6.20;68.70
43647;DHT22;56152;49.996;18.980;2023-12-20T01:28:27;6.30;68.60
43647;DHT22;56152;49.996;18.980;2023-12-20T01:33:30;6.30;68.30
43647;DHT22;56152;49.996;18.980;2023-12-20T01:38:32;6.30;68.20
43647;DHT22;56152;49.996;18.980;2023-12-20T01:43:35;6.30;68.00
43647;DHT22;56152;49.996;18.980;2023-12-20T01:48:37;6.30;68.00
43647;DHT22;56152;49.996;18.980;2023-12-20T01:53:42;6.30;68.10
43647;DHT22;56152;49.996;18.980;2023-12-20T01:58:47;6.30;68.30
43647;DHT22;56152;49.996;18.980;2023-12-20T02:03:50;6.20;68.90
43647;DHT22;56152;49.996;18.980;2023-12-20T02:08:53;6.20;68.30
43647;DHT22;56152;49.996;18.980;2023-12-20T02:13:56;6.10;69.10
43647;DHT22;56152;49.996;18.980;2023-12-20T02:18:59;6.00;68.70
43647;DHT22;56152;49.996;18.980;2023-12-20T02:24:03;5.90;69.00
43647;DHT22;56152;49.996;18.980;2023-12-20T02:29:05;5.70;69.30
43647;DHT22;56152;49.996;18.980;2023-12-20T02:34:07;5.60;69.50
43647;DHT22;56152;49.996;18.980;2023-12-20T02:39:10;5.50;69.90
43647;DHT22;56152;49.996;18.980;2023-12-20T02:44:13;5.50;70.30
43647;DHT22;56152;49.996;18.980;2023-12-20T02:49:19;5.50;70.40
43647;DHT22;56152;49.996;18.980;2023-12-20T02:54:23;5.50;70.50
43647;DHT22;56152;49.996;18.980;2023-12-20T02:59:25;5.60;70.60
43647;DHT22;56152;49.996;18.980;2023-12-20T03:04:27;5.50;71.30
43647;DHT22;56152;49.996;18.980;2023-12-20T03:09:31;5.60;70.80
43647;DHT22;56152;49.996;18.980;2023-12-20T03:14:33;5.60;70.80
43647;DHT22;56152;49.996;18.980;2023-12-20T03:19:35;5.70;70.80
43647;DHT22;56152;49.996;18.980;2023-12-20T03:24:39;5.70;71.20
43647;DHT22;56152;49.996;18.980;2023-12-20T03:29:41;5.80;70.60
43647;DHT22;56152;49.996;18.980;2023-12-20T03:34:43;5.70;70.90
43647;DHT22;56152;49.996;18.980;2023-12-20T03:39:47;5.60;71.40
43647;DHT22;56152;49.996;18.980;2023-12-20T03:44:49;5.50;72.60
43647;DHT22;56152;49.996;18.980;2023-12-20T03:49:52;5.40;72.90
43647;DHT22;56152;49.996;18.980;2023-12-20T03:54:55;5.20;73.80
43647;DHT22;56152;49.996;18.980;2023-12-20T03:59:58;4.90;74.90
43647;DHT22;56152;49.996;18.980;2023-12-20T04:05:00;4.70;76.00
43647;DHT22;56152;49.996;18.980;2023-12-20T04:10:03;4.60;77.00
43647;DHT22;56152;49.996;18.980;2023-12-20T04:15:07;4.40;77.90
43647;DHT22;56152;49.996;18.980;2023-12-20T04:20:12;4.30;78.60
43647;DHT22;56152;49.996;18.980;2023-12-20T04:25:16;4.30;79.60
43647;DHT22;56152;49.996;18.980;2023-12-20T04:30:19;4.20;79.90
43647;DHT22;56152;49.996;18.980;2023-12-20T04:35:21;4.20;80.80
43647;DHT22;56152;49.996;18.980;2023-12-20T04:40:25;4.10;81.20
43647;DHT22;56152;49.996;18.980;2023-12-20T04:45:26;4.10;81.70
43647;DHT22;56152;49.996;18.980;2023-12-20T04:50:28;4.10;82.60
43647;DHT22;56152;49.996;18.980;2023-12-20T04:55:35;4.10;82.90
43647;DHT22;56152;49.996;18.980;2023-12-20T05:00:37;4.10;83.60
43647;DHT22;56152;49.996;18.980;2023-12-20T05:05:39;4.10;83.80
43647;DHT22;56152;49.996;18.980;2023-12-20T05:10:42;4.10;84.10
43647;DHT22;56152;49.996;18.980;2023-12-20T05:15:45;4.00;84.70
43647;DHT22;56152;49.996;18.980;2023-12-20T05:20:48;4.00;85.30
43647;DHT22;56152;49.996;18.980;2023-12-20T05:25:51;4.00;85.50
43647;DHT22;56152;49.996;18.980;2023-12-20T05:30:54;4.00;86.10
43647;DHT22;56152;49.996;18.980;2023-12-20T05:35:56;3.90;86.50
43647;DHT22;56152;49.996;18.980;2023-12-20T05:41:03;3.90;86.80
43647;DHT22;56152;49.996;18.980;2023-12-20T05:46:05;3.90;87.20
43647;DHT22;56152;49.996;18.980;2023-12-20T05:51:07;3.90;87.70
43647;DHT22;56152;49.996;18.980;2023-12-20T05:56:10;3.90;88.00
43647;DHT22;56152;49.996;18.980;2023-12-20T06:01:14;3.80;88.40
43647;DHT22;56152;49.996;18.980;2023-12-20T06:06:17;3.80;88.80
43647;DHT22;56152;49.996;18.980;2023-12-20T06:11:20;3.80;89.20
43647;DHT22;56152;49.996;18.980;2023-12-20T06:16:22;3.80;89.50
43647;DHT22;56152;49.996;18.980;2023-12-20T06:21:24;3.80;90.00
43647;DHT22;56152;49.996;18.980;2023-12-20T06:26:28;3.80;90.10
43647;DHT22;56152;49.996;18.980;2023-12-20T06:31:29;3.80;90.20
43647;DHT22;56152;49.996;18.980;2023-12-20T06:36:36;3.80;90.40
43647;DHT22;56152;49.996;18.980;2023-12-20T06:41:40;3.80;90.50
43647;DHT22;56152;49.996;18.980;2023-12-20T06:46:43;3.80;90.60
43647;DHT22;56152;49.996;18.980;2023-12-20T06:51:45;3.80;90.70
43647;DHT22;56152;49.996;18.980;2023-12-20T06:56:49;3.80;90.80
43647;DHT22;56152;49.996;18.980;2023-12-20T07:01:53;3.80;91.00
43647;DHT22;56152;49.996;18.980;2023-12-20T07:06:55;3.70;91.10
43647;DHT22;56152;49.996;18.980;2023-12-20T07:12:05;3.70;91.20
43647;DHT22;56152;49.996;18.980;2023-12-20T07:17:08;3.70;91.40
43647;DHT22;56152;49.996;18.980;2023-12-20T07:22:12;3.60;91.50
43647;DHT22;56152;49.996;18.980;2023-12-20T07:27:15;3.60;91.90
43647;DHT22;56152;49.996;18.980;2023-12-20T07:32:18;3.60;91.80
43647;DHT22;56152;49.996;18.980;2023-12-20T07:37:20;3.60;91.90
43647;DHT22;56152;49.996;18.980;2023-12-20T07:42:23;3.60;91.90
43647;DHT22;56152;49.996;18.980;2023-12-20T07:47:26;3.50;92.00
43647;DHT22;56152;49.996;18.980;2023-12-20T07:52:28;3.60;92.10
43647;DHT22;56152;49.996;18.980;2023-12-20T07:57:35;3.60;92.20
43647;DHT22;56152;49.996;18.980;2023-12-20T08:02:37;3.50;92.20
43647;DHT22;56152;49.996;18.980;2023-12-20T08:07:38;3.50;92.30
43647;DHT22;56152;49.996;18.980;2023-12-20T08:12:42;3.50;92.40
43647;DHT22;56152;49.996;18.980;2023-12-20T08:17:44;3.50;92.40
43647;DHT22;56152;49.996;18.980;2023-12-20T08:22:51;3.50;92.50
43647;DHT22;56152;49.996;18.980;2023-12-20T08:27:54;3.50;92.60
43647;DHT22;56152;49.996;18.980;2023-12-20T08:32:59;3.50;92.60
43647;DHT22;56152;49.996;18.980;2023-12-20T08:38:03;3.50;92.70
43647;DHT22;56152;49.996;18.980;2023-12-20T08:43:07;3.50;92.80
43647;DHT22;56152;49.996;18.980;2023-12-20T08:48:09;3.50;92.80
43647;DHT22;56152;49.996;18.980;2023-12-20T08:53:11;3.50;92.90
43647;DHT22;56152;49.996;18.980;2023-12-20T08:58:15;3.50;93.00
43647;DHT22;56152;49.996;18.980;2023-12-20T09:03:17;3.50;93.10
43647;DHT22;56152;49.996;18.980;2023-12-20T09:08:19;3.40;93.10
43647;DHT22;56152;49.996;18.980;2023-12-20T09:13:23;3.50;93.20
43647;DHT22;56152;49.996;18.980;2023-12-20T09:18:28;3.50;93.20
43647;DHT22;56152;49.996;18.980;2023-12-20T09:23:31;3.50;93.30
43647;DHT22;56152;49.996;18.980;2023-12-20T09:28:35;3.60;93.30
43647;DHT22;56152;49.996;18.980;2023-12-20T09:33:37;3.60;93.30
43647;DHT22;56152;49.996;18.980;2023-12-20T09:38:40;3.70;93.40
43647;DHT22;56152;49.996;18.980;2023-12-20T09:43:44;3.70;93.50
43647;DHT22;56152;49.996;18.980;2023-12-20T09:48:46;3.70;93.50
43647;DHT22;56152;49.996;18.980;2023-12-20T09:53:49;3.80;93.60
43647;DHT22;56152;49.996;18.980;2023-12-20T09:58:53;3.80;93.70
43647;DHT22;56152;49.996;18.980;2023-12-20T10:03:59;3.80;93.70
43647;DHT22;56152;49.996;18.980;2023-12-20T10:09:02;3.80;93.80
43647;DHT22;56152;49.996;18.980;2023-12-20T10:14:07;3.80;93.80
43647;DHT22;56152;49.996;18.980;2023-12-20T10:19:09;3.80;93.90
43647;DHT22;56152;49.996;18.980;2023-12-20T10:24:17;3.80;93.90
43647;DHT22;56152;49.996;18.980;2023-12-20T10:29:24;3.80;93.90
43647;DHT22;56152;49.996;18.980;2023-12-20T10:34:29;3.90;94.00
43647;DHT22;56152;49.996;18.980;2023-12-20T10:39:34;3.90;94.10
43647;DHT22;56152;49.996;18.980;2023-12-20T10:44:38;3.90;94.10
43647;DHT22;56152;49.996;18.980;2023-12-20T10:49:42;3.90;94.10
43647;DHT22;56152;49.996;18.980;2023-12-20T10:54:44;3.90;94.20
43647;DHT22;56152;49.996;18.980;2023-12-20T10:59:50;3.90;94.20
43647;DHT22;56152;49.996;18.980;2023-12-20T11:04:59;3.90;94.30
43647;DHT22;56152;49.996;18.980;2023-12-20T11:10:13;3.90;94.30
43647;DHT22;56152;49.996;18.980;2023-12-20T11:15:23;3.90;94.60
43647;DHT22;56152;49.996;18.980;2023-12-20T11:20:36;3.80;94.40
43647;DHT22;56152;49.996;18.980;2023-12-20T11:25:49;3.90;94.40
43647;DHT22;56152;49.996;18.980;2023-12-20T11:30:55;3.80;94.50
43647;DHT22;56152;49.996;18.980;2023-12-20T11:36:01;3.80;94.50
43647;DHT22;56152;49.996;18.980;2023-12-20T11:41:06;3.90;94.60
43647;DHT22;56152;49.996;18.980;2023-12-20T11:46:10;3.90;94.60
43647;DHT22;56152;49.996;18.980;2023-12-20T11:51:13;3.90;94.60
43647;DHT22;56152;49.996;18.980;2023-12-20T11:56:18;3.80;94.60
43647;DHT22;56152;49.996;18.980;2023-12-20T12:01:22;3.90;94.70
43647;DHT22;56152;49.996;18.980;2023-12-20T12:06:24;3.90;94.70
43647;DHT22;56152;49.996;18.980;2023-12-20T12:11:27;3.90;94.70
43647;DHT22;56152;49.996;18.980;2023-12-20T12:16:30;3.90;94.80
43647;DHT22;56152;49.996;18.980;2023-12-20T12:21:36;3.90;94.80
43647;DHT22;56152;49.996;18.980;2023-12-20T12:26:38;3.90;94.90
43647;DHT22;56152;49.996;18.980;2023-12-20T12:31:43;3.90;94.90
43647;DHT22;56152;49.996;18.980;2023-12-20T12:36:46;4.00;94.90
43647;DHT22;56152;49.996;18.980;2023-12-20T12:41:49;4.00;94.90
43647;DHT22;56152;49.996;18.980;2023-12-20T12:46:53;4.00;94.90
43647;DHT22;56152;49.996;18.980;2023-12-20T12:51:55;4.00;94.90
43647;DHT22;56152;49.996;18.980;2023-12-20T12:56:58;4.00;95.00
43647;DHT22;56152;49.996;18.980;2023-12-20T13:02:02;4.00;95.10
43647;DHT22;56152;49.996;18.980;2023-12-20T13:07:05;3.90;95.10
43647;DHT22;56152;49.996;18.980;2023-12-20T13:12:08;3.90;95.10
43647;DHT22;56152;49.996;18.980;2023-12-20T13:17:12;3.90;95.20
43647;DHT22;56152;49.996;18.980;2023-12-20T13:22:20;3.90;95.20
43647;DHT22;56152;49.996;18.980;2023-12-20T13:27:23;3.90;95.30
43647;DHT22;56152;49.996;18.980;2023-12-20T13:32:27;3.90;95.30
43647;DHT22;56152;49.996;18.980;2023-12-20T13:37:29;3.90;95.30
43647;DHT22;56152;49.996;18.980;2023-12-20T13:42:32;3.80;95.30
43647;DHT22;56152;49.996;18.980;2023-12-20T13:47:36;3.80;95.40
43647;DHT22;56152;49.996;18.980;2023-12-20T13:52:40;3.90;95.40
43647;DHT22;56152;49.996;18.980;2023-12-20T13:57:44;3.90;95.40
43647;DHT22;56152;49.996;18.980;2023-12-20T14:02:50;3.80;95.40
43647;DHT22;56152;49.996;18.980;2023-12-20T14:07:53;3.80;95.40
43647;DHT22;56152;49.996;18.980;2023-12-20T14:12:58;3.80;95.40
43647;DHT22;56152;49.996;18.980;2023-12-20T14:18:01;3.80;95.40
43647;DHT22;56152;49.996;18.980;2023-12-20T14:23:05;3.80;95.40
43647;DHT22;56152;49.996;18.980;2023-12-20T14:28:07;3.90;95.40
43647;DHT22;56152;49.996;18.980;2023-12-20T14:33:21;3.90;95.40
43647;DHT22;56152;49.996;18.980;2023-12-20T14:43:47;3.80;95.40
43647;DHT22;56152;49.996;18.980;2023-12-20T14:48:54;3.70;95.40
43647;DHT22;56152;49.996;18.980;2023-12-20T14:54:01;3.70;95.40
43647;DHT22;56152;49.996;18.980;2023-12-20T14:59:03;3.60;95.40
43647;DHT22;56152;49.996;18.980;2023-12-20T15:04:09;3.60;95.50
43647;DHT22;56152;49.996;18.980;2023-12-20T15:09:12;3.50;95.50
43647;DHT22;56152;49.996;18.980;2023-12-20T15:14:14;3.40;95.60
43647;DHT22;56152;49.996;18.980;2023-12-20T15:19:22;3.30;95.60
43647;DHT22;56152;49.996;18.980;2023-12-20T15:24:25;3.20;95.70
43647;DHT22;56152;49.996;18.980;2023-12-20T15:29:40;3.20;96.10
43647;DHT22;56152;49.996;18.980;2023-12-20T15:34:44;3.20;95.80
43647;DHT22;56152;49.996;18.980;2023-12-20T15:39:52;3.10;95.80
43647;DHT22;56152;49.996;18.980;2023-12-20T15:44:55;3.10;95.80
43647;DHT22;56152;49.996;18.980;2023-12-20T15:49:58;3.20;95.80
43647;DHT22;56152;49.996;18.980;2023-12-20T15:55:00;3.20;95.80
43647;DHT22;56152;49.996;18.980;2023-12-20T16:00:04;3.20;95.70
43647;DHT22;56152;49.996;18.980;2023-12-20T16:05:08;3.20;95.70
43647;DHT22;56152;49.996;18.980;2023-12-20T16:10:10;3.10;95.70
43647;DHT22;56152;49.996;18.980;2023-12-20T16:15:12;3.10;95.70
43647;DHT22;56152;49.996;18.980;2023-12-20T16:20:16;3.10;95.80
43647;DHT22;56152;49.996;18.980;2023-12-20T16:25:17;3.10;95.80
43647;DHT22;56152;49.996;18.980;2023-12-20T16:30:20;3.10;95.80
43647;DHT22;56152;49.996;18.980;2023-12-20T16:35:27;3.10;95.80
43647;DHT22;56152;49.996;18.980;2023-12-20T16:40:29;3.10;95.80
43647;DHT22;56152;49.996;18.980;2023-12-20T16:45:31;3.10;95.70
43647;DHT22;56152;49.996;18.980;2023-12-20T16:50:34;3.10;95.70
43647;DHT22;56152;49.996;18.980;2023-12-20T16:55:36;3.10;95.80
43647;DHT22;56152;49.996;18.980;2023-12-20T17:00:42;3.10;95.80
43647;DHT22;56152;49.996;18.980;2023-12-20T17:05:46;3.10;95.80
43647;DHT22;56152;49.996;18.980;2023-12-20T17:10:48;3.10;95.80
43647;DHT22;56152;49.996;18.980;2023-12-20T17:15:49;3.20;95.70
43647;DHT22;56152;49.996;18.980;2023-12-20T17:20:53;3.20;95.70
43647;DHT22;56152;49.996;18.980;2023-12-20T17:26:03;3.20;95.60
43647;DHT22;56152;49.996;18.980;2023-12-20T17:31:08;3.20;95.60
43647;DHT22;56152;49.996;18.980;2023-12-20T17:36:11;3.10;95.60
43647;DHT22;56152;49.996;18.980;2023-12-20T17:41:15;3.10;95.60
43647;DHT22;56152;49.996;18.980;2023-12-20T17:46:17;3.20;95.60
43647;DHT22;56152;49.996;18.980;2023-12-20T17:51:23;3.30;95.60
43647;DHT22;56152;49.996;18.980;2023-12-20T17:56:25;3.40;95.50
43647;DHT22;56152;49.996;18.980;2023-12-20T18:01:35;3.30;95.40
43647;DHT22;56152;49.996;18.980;2023-12-20T18:06:39;3.40;95.40
43647;DHT22;56152;49.996;18.980;2023-12-20T18:11:44;3.30;95.30
43647;DHT22;56152;49.996;18.980;2023-12-20T18:16:47;3.30;95.30
43647;DHT22;56152;49.996;18.980;2023-12-20T18:21:51;3.30;95.30
43647;DHT22;56152;49.996;18.980;2023-12-20T18:26:53;3.30;95.30
43647;DHT22;56152;49.996;18.980;2023-12-20T18:31:56;3.40;95.40
43647;DHT22;56152;49.996;18.980;2023-12-20T18:36:59;3.40;95.30
43647;DHT22;56152;49.996;18.980;2023-12-20T18:42:01;3.40;95.20
43647;DHT22;56152;49.996;18.980;2023-12-20T18:47:06;3.50;95.20
43647;DHT22;56152;49.996;18.980;2023-12-20T18:52:13;3.50;95.20
43647;DHT22;56152;49.996;18.980;2023-12-20T18:57:15;3.50;95.10
43647;DHT22;56152;49.996;18.980;2023-12-20T19:02:17;3.50;95.10
43647;DHT22;56152;49.996;18.980;2023-12-20T19:07:20;3.50;95.00
43647;DHT22;56152;49.996;18.980;2023-12-20T19:12:23;3.50;95.00
43647;DHT22;56152;49.996;18.980;2023-12-20T19:17:25;3.60;95.20
43647;DHT22;56152;49.996;18.980;2023-12-20T19:22:35;3.60;94.80
43647;DHT22;56152;49.996;18.980;2023-12-20T19:27:37;3.60;94.80
43647;DHT22;56152;49.996;18.980;2023-12-20T19:32:39;3.60;94.80
43647;DHT22;56152;49.996;18.980;2023-12-20T19:37:44;3.50;94.70
43647;DHT22;56152;49.996;18.980;2023-12-20T19:42:46;3.50;94.60
43647;DHT22;56152;49.996;18.980;2023-12-20T19:47:49;3.60;94.60
43647;DHT22;56152;49.996;18.980;2023-12-20T19:52:53;3.40;94.50
43647;DHT22;56152;49.996;18.980;2023-12-20T19:57:56;3.40;94.60
43647;DHT22;56152;49.996;18.980;2023-12-20T20:02:59;3.40;94.50
43647;DHT22;56152;49.996;18.980;2023-12-20T20:08:08;3.40;94.60
43647;DHT22;56152;49.996;18.980;2023-12-20T20:13:10;3.40;94.60
43647;DHT22;56152;49.996;18.980;2023-12-20T20:18:13;3.40;94.50
43647;DHT22;56152;49.996;18.980;2023-12-20T20:23:40;3.30;94.50
43647;DHT22;56152;49.996;18.980;2023-12-20T20:28:43;3.30;94.50
43647;DHT22;56152;49.996;18.980;2023-12-20T20:33:58;3.20;94.50
43647;DHT22;56152;49.996;18.980;2023-12-20T20:39:05;3.20;94.90
43647;DHT22;56152;49.996;18.980;2023-12-20T20:44:17;3.10;94.50
43647;DHT22;56152;49.996;18.980;2023-12-20T20:49:31;3.10;94.60
43647;DHT22;56152;49.996;18.980;2023-12-20T20:54:42;3.10;94.60
43647;DHT22;56152;49.996;18.980;2023-12-20T20:59:47;3.00;94.50
43647;DHT22;56152;49.996;18.980;2023-12-20T21:04:54;3.00;94.60
43647;DHT22;56152;49.996;18.980;2023-12-20T21:09:59;3.10;94.60
43647;DHT22;56152;49.996;18.980;2023-12-20T21:15:05;3.20;94.50
43647;DHT22;56152;49.996;18.980;2023-12-20T21:20:09;3.30;94.40
43647;DHT22;56152;49.996;18.980;2023-12-20T21:25:14;3.40;94.30
43647;DHT22;56152;49.996;18.980;2023-12-20T21:30:16;3.40;94.20
43647;DHT22;56152;49.996;18.980;2023-12-20T21:35:20;3.40;94.20
43647;DHT22;56152;49.996;18.980;2023-12-20T21:40:24;3.50;94.20
43647;DHT22;56152;49.996;18.980;2023-12-20T21:45:27;3.50;94.10
43647;DHT22;56152;49.996;18.980;2023-12-20T21:50:29;3.50;94.10
43647;DHT22;56152;49.996;18.980;2023-12-20T21:55:33;3.50;94.10
43647;DHT22;56152;49.996;18.980;2023-12-20T22:00:35;3.50;94.00
43647;DHT22;56152;49.996;18.980;2023-12-20T22:05:38;3.60;94.10
43647;DHT22;56152;49.996;18.980;2023-12-20T22:10:42;3.50;94.00
43647;DHT22;56152;49.996;18.980;2023-12-20T22:15:44;3.60;94.10
43647;DHT22;56152;49.996;18.980;2023-12-20T22:20:46;3.60;94.10
43647;DHT22;56152;49.996;18.980;2023-12-20T22:25:50;3.60;94.10
43647;DHT22;56152;49.996;18.980;2023-12-20T22:30:54;3.70;94.00
43647;DHT22;56152;49.996;18.980;2023-12-20T22:36:03;3.70;94.00
43647;DHT22;56152;49.996;18.980;2023-12-20T22:41:08;3.70;93.90
43647;DHT22;56152;49.996;18.980;2023-12-20T22:46:13;3.70;93.90
43647;DHT22;56152;49.996;18.980;2023-12-20T22:51:16;3.70;93.90
43647;DHT22;56152;49.996;18.980;2023-12-20T22:56:23;3.70;93.90
43647;DHT22;56152;49.996;18.980;2023-12-20T23:01:26;3.60;93.90
43647;DHT22;56152;49.996;18.980;2023-12-20T23:06:29;3.60;93.90
43647;DHT22;56152;49.996;18.980;2023-12-20T23:11:33;3.60;93.90
43647;DHT22;56152;49.996;18.980;2023-12-20T23:16:36;3.70;93.90
43647;DHT22;56152;49.996;18.980;2023-12-20T23:21:39;3.70;93.90
43647;DHT22;56152;49.996;18.980;2023-12-20T23:26:43;3.60;93.90
43647;DHT22;56152;49.996;18.980;2023-12-20T23:31:45;3.60;93.90
43647;DHT22;56152;49.996;18.980;2023-12-20T23:36:47;3.60;93.90
43647;DHT22;56152;49.996;18.980;2023-12-20T23:41:51;3.60;93.90
43647;DHT22;56152;49.996;18.980;2023-12-20T23:46:53;3.60;93.90
43647;DHT22;56152;49.996;18.980;2023-12-20T23:51:55;3.50;93.90
43647;DHT22;56152;49.996;18.980;2023-12-20T23:57:00;3.50;94.00
